Decoded Metar for LDDU (DUBROVNIK in CROATIA) (IATA:DBV) | Meteo·Mobile Aviation Weather
aviador You're here:

LDDU Decoded Metar

DUBROVNIK in CROATIA
Report Time2019-01-18 11:00:00
UTC Time2019-01-18 11:30:47
Flight Rules vfr VFR
Wind120° at 16 kt
W.Decomp.*RWY 12: 16.0 kt HW 0.8 kt LCW
W.Rank120° ranks 9
Current wind is above 120° avg. (10.8)
Visibility9999 m
Phenomena:N/A
Clouds:Few 013 Hf
Broken 035 Hf
Expected CloudBase > 1,200 ft AGL from Temp-Dew spread
Ceiling3,500 ft
Temp11°C (ISA -3)
Dew Point08°C (82% RH)
AAT4.8°C
QNH1015 hPa
Density Alt272 ft
Elevation541 ft
Report Wrong Elevation
Raw Report
LDDU 181100Z 12016KT 080V140 9999 FEW013 BKN035 11/08 Q1015
NOSIG=

Extra information for LDDU:More info

Metar Taf Metar & Taf Last 4 Metars F.Rules Stats Wind Profile Meteogram Temp Stats Airport Information Weather charts Add Link Nearby VenuesMetar ALERT Operation Metar Decoded Social comments